Other Surface Observations
Issued by NWS Great Falls, MT

Home | Current Version | Previous Version | Text Only | Print | Product List | Glossary On
Versions: 1 2 3 4 5 6 7 8 9 10 11 12 13 14 15 16 17 18 19 20 21 22 23 24 25 26 27 28 29 30 31 32 33 34 35 36 37 38 39 40 41 42 43 44 45 46 47 48 49 50
000
SXUS55 KTFX 251529
OSOTFX
AREA AWOS OBSERVATIONS
NATIONAL WEATHER SERVICE GREAT FALLS MT
0929 AM MDT WED MAY 25 2016

METAR KPWD 251530Z AUTO 29008KT 2 1/2SM 09/09 A2990 RMK PLENTYWOOD
METAR KPO1 251530Z AUTO 02010KT 10SM 11/08 A2988 RMK POPLAR
METAR K1S3 251530Z AUTO 25005KT 10SM 12/09 A2988 RMK FORSYTH
METAR KS71 251530Z AUTO 00000KT 10SM 13/08 A2988 RMK CHINOOK
METAR K38S 251530Z AUTO 00000KT 10SM 07/04 A3003 RMK DEER LODGE
METAR K3U3 251530Z AUTO 23003KT 10/02 A3000 RMK ANACONDA
METAR K6S5 251530Z AUTO 17008KT 10SM 10/04 A3001 RMK HAMILTON
METAR KS59 251530Z AUTO 00000KT 10SM 11/07 A2998 RMK LIBBY
METAR K88M 251530Z AUTO 15003KT 10SM 13/06 A2996 RMK EUREKA



USA.gov is the U.S. government's official web portal to all federal, state and local government web resources and services.